»·PEaware :: N85AA KBAM-KBAB

N85AA :: KBAM-KBAB

FLIGHT INFORMATION

Flight Status: Arrived
Operator: Privately registered:
United States
More flights under this callsign
Pilot: Dan A. (12711)
Aircraft: SOCATA TBM-900
(TBM9)
More flights by this aircraft type
Origin: KBAM Battle Mountain
United States
Destination: KBAB Beale AFB
United States
More flights between these airports :: More routes between these airports
Route: BAM J32 COLOM
File this flight plan on PilotEdge
Remarks:
Altitude:
(Current/Filed)
26,000ft
Speed:
(Current/Filed)
250kts
Departed: 28-Jun-19 08:49 PM
Arrived: 28-Jun-19 10:09 PM
Distance/Time
Traveled:
227nm/1:20
Distance/Time
To Go:
Arrived

Flight Plot

Page will automatically refresh every two minutes.

Flight plan parsing failed; only flown route is shown


Map Options




Map Legend


Flown Route
Filed Route
Departure Airport
Arrival Airport
Navaid (VOR, NDB)
Fix

Horizontal Profiles

Position Reports

Time Latitude Longitude Heading Altitude Ground
Speed
28-Jun-19 20:29 40.606995 -116.875786 82 4531ft 0kts
28-Jun-19 20:30 40.606995 -116.875786 82 4531ft 0kts
28-Jun-19 20:31 40.606995 -116.875786 82 4531ft 0kts
28-Jun-19 20:32 40.606995 -116.875786 82 4531ft 0kts
28-Jun-19 20:33 40.606995 -116.875786 82 4531ft 0kts
28-Jun-19 20:34 40.606995 -116.875786 82 4531ft 0kts
28-Jun-19 20:35 40.606995 -116.875786 82 4531ft 0kts
28-Jun-19 20:36 40.606995 -116.875786 82 4531ft 0kts
28-Jun-19 20:37 40.606995 -116.875786 82 4531ft 0kts
28-Jun-19 20:38 40.606995 -116.875786 82 4531ft 0kts
28-Jun-19 20:39 40.606995 -116.875786 82 4531ft 0kts
28-Jun-19 20:40 40.606995 -116.875786 82 4531ft 0kts
28-Jun-19 20:41 40.606995 -116.875786 82 4531ft 0kts
28-Jun-19 20:42 40.606995 -116.875781 82 4531ft 0kts
28-Jun-19 20:43 40.606998 -116.875748 84 4531ft 0kts
28-Jun-19 20:44 40.607000 -116.875721 84 4531ft 0kts
28-Jun-19 20:45 40.605605 -116.878125 264 4531ft 18kts
28-Jun-19 20:46 40.604666 -116.881627 138 4531ft 0kts
28-Jun-19 20:47 40.604478 -116.881392 134 4531ft 26kts
28-Jun-19 20:48 40.581967 -116.852283 143 5367ft 136kts
28-Jun-19 20:49 40.544752 -116.852261 232 6898ft 148kts
28-Jun-19 20:50 40.536049 -116.902416 264 8785ft 144kts
28-Jun-19 20:51 40.529269 -116.955511 267 10522ft 145kts
28-Jun-19 20:52 40.516482 -117.004514 242 12274ft 143kts
28-Jun-19 20:53 40.492551 -117.044265 238 13900ft 134kts
28-Jun-19 20:54 40.472271 -117.082553 272 15336ft 127kts
28-Jun-19 20:55 40.479636 -117.130141 269 16818ft 136kts
28-Jun-19 20:56 40.486903 -117.179078 268 18334ft 137kts
28-Jun-19 20:57 40.488275 -117.227818 248 19938ft 130kts
28-Jun-19 20:58 40.477389 -117.273296 243 21508ft 131kts
28-Jun-19 20:59 40.465698 -117.317881 242 22986ft 129kts
28-Jun-19 21:00 40.453877 -117.362706 242 24273ft 131kts
28-Jun-19 21:01 40.441783 -117.408505 241 25434ft 133kts
28-Jun-19 21:02 40.429090 -117.456324 242 26174ft 154kts
28-Jun-19 21:03 40.412397 -117.519671 245 26166ft 210kts
28-Jun-19 21:04 40.391778 -117.598134 246 26133ft 238kts
28-Jun-19 21:05 40.369433 -117.682280 245 26130ft 247kts
28-Jun-19 21:06 40.346454 -117.768316 245 26126ft 251kts
28-Jun-19 21:07 40.323137 -117.855157 245 26129ft 252kts
28-Jun-19 21:08 40.299708 -117.942078 245 26125ft 253kts
28-Jun-19 21:09 40.276247 -118.028952 245 26115ft 253kts
28-Jun-19 21:10 40.252629 -118.115746 245 26110ft 253kts
28-Jun-19 21:11 40.229009 -118.202417 245 26110ft 252kts
28-Jun-19 21:12 40.205327 -118.289004 245 26108ft 252kts
28-Jun-19 21:13 40.181656 -118.375290 246 26100ft 252kts
28-Jun-19 21:14 40.157917 -118.461678 246 26104ft 251kts
28-Jun-19 21:15 40.134079 -118.547936 245 26117ft 251kts
28-Jun-19 21:16 40.100117 -118.625641 233 26105ft 246kts
28-Jun-19 21:18 40.060293 -118.698615 233 26112ft 247kts
28-Jun-19 21:19 40.020487 -118.771771 233 26111ft 247kts
28-Jun-19 21:20 39.980622 -118.844829 232 26106ft 248kts
28-Jun-19 21:21 39.940199 -118.918772 231 26109ft 252kts
28-Jun-19 21:22 39.898874 -118.994089 230 26110ft 258kts
28-Jun-19 21:23 39.856300 -119.071534 230 26127ft 266kts
28-Jun-19 21:24 39.812810 -119.150588 230 26131ft 269kts
28-Jun-19 21:25 39.769085 -119.229841 230 26145ft 270kts
28-Jun-19 21:26 39.725258 -119.309030 230 26157ft 270kts
28-Jun-19 21:27 39.681177 -119.388503 230 26153ft 270kts
28-Jun-19 21:28 39.637103 -119.467747 230 26151ft 270kts
28-Jun-19 21:29 39.593049 -119.546783 230 26153ft 270kts
28-Jun-19 21:30 39.548863 -119.625873 230 26147ft 270kts
28-Jun-19 21:31 39.504911 -119.704554 230 26147ft 270kts
28-Jun-19 21:32 39.460940 -119.783251 230 26140ft 268kts
28-Jun-19 21:33 39.417178 -119.861199 230 26165ft 267kts
28-Jun-19 21:34 39.375704 -119.934132 229 25009ft 228kts
28-Jun-19 21:35 39.339416 -119.997945 229 23715ft 217kts
28-Jun-19 21:35 39.309853 -120.050241 229 22652ft 216kts
28-Jun-19 21:37 39.267829 -120.124507 231 21202ft 241kts
28-Jun-19 21:38 39.224770 -120.202149 232 20216ft 275kts
28-Jun-19 21:39 39.180039 -120.279926 231 20217ft 267kts
28-Jun-19 21:40 39.136518 -120.356059 232 20217ft 266kts
28-Jun-19 21:40 39.099946 -120.419984 232 19980ft 273kts
28-Jun-19 21:42 39.048343 -120.510732 230 17883ft 241kts
28-Jun-19 21:42 39.016370 -120.564522 231 15668ft 218kts
28-Jun-19 21:43 38.981588 -120.624527 232 13068ft 205kts
28-Jun-19 21:45 38.980176 -120.691772 302 11424ft 185kts
28-Jun-19 21:45 39.004635 -120.737019 302 10441ft 185kts
28-Jun-19 21:46 39.033290 -120.791341 303 9223ft 183kts
28-Jun-19 21:47 39.061084 -120.845622 303 7997ft 181kts
28-Jun-19 21:48 39.088180 -120.899897 303 6755ft 180kts
28-Jun-19 21:49 39.115316 -120.955255 304 5524ft 186kts
28-Jun-19 21:50 39.140105 -121.007070 303 5448ft 160kts
28-Jun-19 21:51 39.166519 -121.062260 304 5442ft 205kts
28-Jun-19 21:52 39.197966 -121.125142 305 5375ft 210kts
28-Jun-19 21:53 39.230930 -121.187530 306 5309ft 209kts
28-Jun-19 21:54 39.264582 -121.248472 308 5282ft 206kts
28-Jun-19 21:55 39.299072 -121.308914 311 4807ft 212kts
28-Jun-19 21:56 39.327789 -121.362804 304 3802ft 168kts
28-Jun-19 21:57 39.355914 -121.417418 305 3800ft 188kts
28-Jun-19 21:58 39.383173 -121.476419 286 3685ft 202kts
28-Jun-19 21:59 39.372265 -121.539980 205 2741ft 165kts
28-Jun-19 22:00 39.333374 -121.522996 159 2804ft 137kts
28-Jun-19 22:01 39.303417 -121.509273 162 2756ft 102kts
28-Jun-19 22:02 39.276356 -121.497640 163 2540ft 98kts
28-Jun-19 22:03 39.250911 -121.486392 162 1996ft 94kts
28-Jun-19 22:04 39.225755 -121.475506 162 1548ft 98kts
28-Jun-19 22:05 39.199306 -121.464041 162 1052ft 102kts
28-Jun-19 22:06 39.171970 -121.452200 162 544ft 104kts
28-Jun-19 22:07 39.146105 -121.440766 163 200ft 100kts
28-Jun-19 22:08 39.132565 -121.435434 157 99ft 33kts
28-Jun-19 22:09 39.128993 -121.438824 205 98ft 1kts
28-Jun-19 22:10 39.128986 -121.438828 206 98ft 0kts
28-Jun-19 22:11 39.128840 -121.438712 116 98ft 11kts
28-Jun-19 22:12 39.134888 -121.432236 1 113ft 14kts
28-Jun-19 22:13 39.138808 -121.430393 56 127ft 23kts
28-Jun-19 22:14 39.141872 -121.430178 335 124ft 0kts
28-Jun-19 22:15 39.141872 -121.430178 334 124ft 0kts
28-Jun-19 22:16 39.141872 -121.430178 334 124ft 0kts
28-Jun-19 22:17 39.141872 -121.430178 334 124ft 0kts
28-Jun-19 22:18 39.141872 -121.430178 334 124ft 0kts
28-Jun-19 22:19 39.141872 -121.430178 334 124ft 0kts
28-Jun-19 22:20 39.141872 -121.430178 334 124ft 0kts
28-Jun-19 22:21 39.141872 -121.430178 334 124ft 0kts
28-Jun-19 22:22 39.141872 -121.430178 334 124ft 0kts

Navigation Log

Ident Type
Flight plan parsing failed, navigation log unavailable